KLAN/LAN METAR and TAF weather

Enter ICAO airport designator
Station Type Date Time Source
KLAN METAR 2020/04/07 05:53 UTC NOAA

KLAN 070553Z 13004KT 10SM BKN044 OVC055 10/02 A2996 RMK AO2 RAB0458E35 SLP148 P0001 60001 T01000017 10144 20100 58004


Station Type Date Time Source
KLAN Decoded METAR 2020/04/07 05:53 UTC NOAA

CAPITAL CITY AIRPORT, MI, United States (KLAN) 42-47N 084-35W 264M
Apr 07, 2020 - 01:53 AM EDT / 2020.04.07 0553 UTC
Wind: from the SE (130 degrees) at 5 MPH (4 KT):0
Visibility: 10 mile(s):0
Sky conditions: overcast
Precipitation last hour: 0.01 inches
Temperature: 50.0 F (10.0 C)
Dew Point: 35.1 F (1.7 C)
Relative Humidity: 56%
Pressure (altimeter): 29.96 in. Hg (1014 hPa)
Pressure tendency: 0.01 inches (0.4 hPa) lower than three hours ago
ob: KLAN 070553Z 13004KT 10SM BKN044 OVC055 10/02 A2996 RMK AO2 RAB0458E35 SLP148 P0001 60001 T01000017 10144 20100 58004
cycle: 6

Station Type Date Time Source
KLAN TAF 2020/04/07 06:45 UTC NOAA

TAF KLAN 070543Z 0706/0806 14005KT P6SM -SHRA OVC035
FM071100 13005KT 6SM -SHRA BR BKN015
FM071300 14006KT 5SM BR VCSH OVC009
FM072100 23010KT P6SM BKN025
FM072300 24009KT P6SM OVC035
FM080000 24008KT P6SM VCTS OVC050CB

Example: see airport list